createdAt,value
2023-02-08T00:02:22.624Z,81.26
2023-02-08T00:05:24.555Z,81.41
2023-02-08T00:08:26.040Z,81.18
2023-02-08T00:11:27.813Z,81.32
2023-02-08T00:14:29.440Z,81.17
2023-02-08T00:17:31.119Z,81.30
2023-02-08T00:20:32.630Z,81.41
2023-02-08T00:23:34.213Z,81.62
2023-02-08T00:26:35.861Z,81.56
2023-02-08T00:29:37.465Z,81.30
2023-02-08T00:32:39.306Z,81.32
2023-02-08T00:35:40.869Z,81.63
2023-02-08T00:38:42.580Z,81.27
2023-02-08T00:41:44.685Z,81.48
2023-02-08T00:44:46.436Z,81.38
2023-02-08T00:47:48.013Z,81.59
2023-02-08T00:50:59.711Z,81.47
2023-02-08T00:54:01.331Z,81.56
2023-02-08T00:57:03.112Z,81.65
2023-02-08T01:00:06.380Z,81.42
2023-02-08T01:03:07.931Z,81.62
2023-02-08T01:06:13.957Z,81.70
2023-02-08T01:09:15.634Z,81.89
2023-02-08T01:12:17.318Z,81.48
2023-02-08T01:15:19.204Z,81.79
2023-02-08T01:18:21.163Z,81.71
2023-02-08T01:21:31.900Z,81.46
2023-02-08T01:24:33.842Z,81.84
2023-02-08T01:27:35.441Z,81.68
2023-02-08T01:30:37.064Z,81.73
2023-02-08T01:33:39.416Z,81.74
2023-02-08T01:36:41.067Z,81.70
2023-02-08T01:39:42.575Z,81.60
2023-02-08T01:42:44.308Z,81.76
2023-02-08T01:45:45.959Z,81.85
2023-02-08T01:48:47.640Z,81.74
2023-02-08T01:51:58.475Z,81.85
2023-02-08T01:55:09.623Z,81.97
2023-02-08T01:58:12.193Z,81.82
2023-02-08T02:01:14.016Z,81.87
2023-02-08T02:04:16.099Z,81.90
2023-02-08T02:07:19.237Z,81.94
2023-02-08T02:10:33.924Z,81.96
2023-02-08T02:13:37.246Z,81.87
2023-02-08T02:16:39.576Z,82.11
2023-02-08T02:20:04.465Z,81.64
2023-02-08T02:23:33.328Z,82.12
2023-02-08T02:27:07.306Z,82.01
2023-02-08T02:30:09.012Z,81.72
2023-02-08T02:33:31.943Z,82.08
2023-02-08T02:36:59.764Z,81.82
2023-02-08T02:40:27.090Z,81.81
2023-02-08T02:43:54.770Z,81.89
2023-02-08T02:47:12.029Z,81.92
2023-02-08T02:50:27.848Z,82.05
2023-02-08T02:53:39.502Z,82.04
2023-02-08T02:56:53.821Z,81.93
2023-02-08T02:59:55.657Z,81.57
2023-02-08T03:02:57.101Z,81.85
2023-02-08T03:06:03.600Z,81.96
2023-02-08T03:09:07.969Z,81.76
2023-02-08T03:12:28.389Z,81.79
2023-02-08T03:15:54.583Z,81.76
2023-02-08T03:19:14.999Z,81.75
2023-02-08T03:22:43.703Z,82.09
2023-02-08T03:25:50.067Z,81.93
2023-02-08T03:29:05.451Z,82.15
2023-02-08T03:32:09.806Z,82.09
2023-02-08T03:35:15.096Z,82.25
2023-02-08T03:38:22.943Z,82.10
2023-02-08T03:41:39.072Z,82.36
2023-02-08T03:44:55.086Z,82.25
2023-02-08T03:47:58.095Z,82.06
2023-02-08T03:51:02.163Z,81.77
2023-02-08T03:54:08.595Z,82.05
2023-02-08T03:57:23.249Z,81.90
2023-02-08T04:00:25.348Z,81.94
2023-02-08T04:03:28.855Z,82.11
2023-02-08T04:06:30.886Z,81.97
2023-02-08T04:09:32.479Z,81.40
2023-02-08T04:12:34.094Z,82.10
2023-02-08T04:15:35.794Z,81.82
2023-02-08T04:18:37.530Z,82.02
2023-02-08T04:21:39.079Z,82.26
2023-02-08T04:24:40.612Z,82.43
2023-02-08T04:27:42.266Z,82.49
2023-02-08T04:30:44.072Z,82.50
2023-02-08T04:33:46.343Z,82.42
2023-02-08T04:36:48.020Z,82.14
2023-02-08T04:39:49.589Z,82.16
2023-02-08T04:42:51.238Z,82.04
2023-02-08T04:45:52.920Z,82.12
2023-02-08T04:48:54.507Z,82.34
2023-02-08T04:51:56.154Z,81.94
2023-02-08T04:54:57.767Z,82.11
2023-02-08T04:57:59.383Z,82.10
2023-02-08T05:01:01.104Z,82.53
2023-02-08T05:04:02.796Z,82.27
2023-02-08T05:07:05.180Z,81.71
2023-02-08T05:10:07.154Z,81.43
2023-02-08T05:13:08.786Z,81.26
2023-02-08T05:16:10.534Z,81.59
2023-02-08T05:19:12.263Z,82.09
2023-02-08T05:22:13.854Z,82.06
2023-02-08T05:25:15.413Z,82.41
2023-02-08T05:28:17.202Z,82.03
2023-02-08T05:31:20.378Z,82.04
2023-02-08T05:34:21.958Z,82.76
2023-02-08T05:37:23.522Z,82.92
2023-02-08T05:40:25.323Z,83.07
2023-02-08T05:43:26.933Z,82.20
2023-02-08T05:46:28.630Z,82.12
2023-02-08T05:49:30.235Z,82.00
2023-02-08T05:52:32.017Z,82.26
2023-02-08T05:55:33.474Z,83.02
2023-02-08T05:58:35.317Z,83.13
2023-02-08T06:01:37.339Z,81.94
2023-02-08T06:04:39.272Z,81.66
2023-02-08T06:07:40.949Z,81.93
2023-02-08T06:10:42.819Z,81.83
2023-02-08T06:13:45.119Z,81.88
2023-02-08T06:16:46.789Z,82.23
2023-02-08T06:19:48.534Z,82.06
2023-02-08T06:22:50.333Z,82.24
2023-02-08T06:25:51.833Z,82.14
2023-02-08T06:28:53.564Z,82.36
2023-02-08T06:31:55.138Z,83.11
2023-02-08T06:34:56.876Z,83.13
2023-02-08T06:37:58.645Z,83.07
2023-02-08T06:41:00.628Z,82.63
2023-02-08T06:44:02.368Z,82.23
2023-02-08T06:47:05.124Z,82.59
2023-02-08T06:50:07.026Z,82.75
2023-02-08T06:53:08.902Z,82.86
2023-02-08T06:56:10.320Z,82.61
2023-02-08T06:59:12.056Z,82.65
2023-02-08T07:02:14.357Z,82.82
2023-02-08T07:05:16.356Z,82.80
2023-02-08T07:08:17.919Z,82.30
2023-02-08T07:11:20.832Z,82.82
2023-02-08T07:14:22.495Z,82.47
2023-02-08T07:17:24.162Z,82.71
2023-02-08T07:20:25.745Z,82.78
2023-02-08T07:23:27.840Z,83.17
2023-02-08T07:26:29.601Z,82.67
2023-02-08T07:29:32.238Z,82.71
2023-02-08T07:32:34.934Z,82.26
2023-02-08T07:35:36.480Z,82.82
2023-02-08T07:38:38.331Z,82.59
2023-02-08T07:41:39.767Z,82.47
2023-02-08T07:44:41.354Z,82.73
2023-02-08T07:47:43.103Z,82.29
2023-02-08T07:50:44.661Z,82.18
2023-02-08T07:53:46.400Z,82.21
2023-02-08T07:56:47.960Z,82.34
2023-02-08T07:59:49.613Z,81.98
2023-02-08T08:02:51.283Z,81.46
2023-02-08T08:05:54.891Z,81.49
2023-02-08T08:08:57.109Z,81.35
2023-02-08T08:11:58.586Z,81.34
2023-02-08T08:15:00.635Z,81.16
2023-02-08T08:18:02.363Z,81.19
2023-02-08T08:21:04.514Z,81.72
2023-02-08T08:24:06.358Z,81.82
2023-02-08T08:27:08.134Z,82.24
2023-02-08T08:30:13.540Z,82.21
2023-02-08T08:33:15.240Z,82.08
2023-02-08T08:36:16.829Z,81.86
2023-02-08T08:39:18.523Z,81.87
2023-02-08T08:42:20.382Z,81.02
2023-02-08T08:45:22.064Z,81.20
2023-02-08T08:48:23.671Z,81.44
2023-02-08T08:51:25.247Z,81.19
2023-02-08T08:54:26.854Z,80.64
2023-02-08T08:57:28.743Z,81.07
2023-02-08T09:00:30.284Z,80.75
2023-02-08T09:03:32.110Z,81.21
2023-02-08T09:06:33.915Z,81.90
2023-02-08T09:09:35.874Z,81.15
2023-02-08T09:12:37.473Z,81.15
2023-02-08T09:15:40.816Z,80.67
2023-02-08T09:18:42.861Z,80.18
2023-02-08T09:21:44.666Z,80.41
2023-02-08T09:24:46.271Z,80.65
2023-02-08T09:27:48.034Z,80.41
2023-02-08T09:30:49.686Z,80.17
2023-02-08T09:33:52.599Z,80.83
2023-02-08T09:36:54.166Z,80.92
2023-02-08T09:39:56.185Z,79.99
2023-02-08T09:43:08.390Z,79.86
2023-02-08T09:46:26.549Z,79.11
2023-02-08T09:49:53.704Z,79.05
2023-02-08T09:53:18.168Z,78.99
2023-02-08T09:56:26.449Z,79.29
2023-02-08T09:59:30.221Z,79.49
2023-02-08T10:02:34.517Z,79.75
2023-02-08T10:05:36.275Z,79.70
2023-02-08T10:08:38.024Z,79.89
2023-02-08T10:11:44.059Z,80.65
2023-02-08T10:15:02.286Z,80.30
2023-02-08T10:18:19.263Z,79.65
2023-02-08T10:22:04.505Z,80.16
2023-02-08T10:25:17.101Z,80.89
2023-02-08T10:28:26.632Z,80.45
2023-02-08T10:32:05.448Z,77.81
2023-02-08T10:35:26.280Z,76.43
2023-02-08T10:38:45.388Z,75.81
2023-02-08T10:41:47.946Z,75.61
2023-02-08T10:45:24.227Z,75.98
2023-02-08T10:49:00.447Z,73.43
2023-02-08T10:52:02.063Z,73.89
2023-02-08T10:55:12.989Z,75.60
2023-02-08T10:58:20.526Z,74.08
2023-02-08T11:01:22.407Z,72.66
2023-02-08T11:04:24.343Z,72.29
2023-02-08T11:07:26.014Z,74.31
2023-02-08T11:10:27.919Z,73.87
2023-02-08T11:13:49.745Z,73.25
2023-02-08T11:16:53.074Z,73.53
2023-02-08T11:19:56.235Z,73.37
2023-02-08T11:22:59.050Z,73.15
2023-02-08T11:26:38.664Z,73.46
2023-02-08T11:29:40.282Z,73.78
2023-02-08T11:32:42.243Z,74.04
2023-02-08T11:35:53.334Z,74.38
2023-02-08T11:38:55.672Z,74.13
2023-02-08T11:42:00.183Z,74.13
2023-02-08T11:45:02.254Z,74.07
2023-02-08T11:48:04.536Z,74.22
2023-02-08T11:51:06.640Z,74.45
2023-02-08T11:54:32.110Z,74.37
2023-02-08T11:57:33.795Z,74.70
2023-02-08T12:00:36.517Z,74.67
2023-02-08T12:03:40.157Z,74.61
2023-02-08T12:07:11.462Z,75.23
2023-02-08T12:10:15.691Z,73.30
2023-02-08T12:13:29.580Z,72.74
2023-02-08T12:16:43.572Z,74.34
2023-02-08T12:20:36.860Z,75.04
2023-02-08T12:24:13.724Z,75.59
2023-02-08T12:27:31.536Z,75.87
2023-02-08T12:30:38.962Z,76.04
2023-02-08T12:34:22.725Z,75.93
2023-02-08T12:37:27.802Z,75.65
2023-02-08T12:41:07.349Z,75.60
2023-02-08T12:44:15.548Z,75.36
2023-02-08T12:47:58.207Z,75.40
2023-02-08T12:51:26.088Z,75.16
2023-02-08T12:54:50.862Z,74.71
2023-02-08T12:58:14.380Z,74.55
2023-02-08T13:01:20.853Z,74.54
2023-02-08T13:04:43.885Z,74.77
2023-02-08T13:07:46.704Z,73.77
2023-02-08T13:10:53.176Z,73.91
2023-02-08T13:14:04.983Z,74.05
2023-02-08T13:17:17.260Z,73.24
2023-02-08T13:20:41.982Z,73.61
2023-02-08T13:23:52.345Z,73.65
2023-02-08T13:26:54.943Z,72.76
2023-02-08T13:29:56.588Z,71.00
2023-02-08T13:32:58.716Z,72.67
2023-02-08T13:36:00.753Z,72.87
2023-02-08T13:39:05.225Z,71.60
2023-02-08T13:42:18.299Z,70.05
2023-02-08T13:45:30.087Z,70.62
2023-02-08T13:48:41.620Z,71.64
2023-02-08T13:51:52.490Z,72.16
2023-02-08T13:55:29.384Z,72.36
2023-02-08T13:58:49.561Z,72.22
2023-02-08T14:02:17.293Z,71.59
2023-02-08T14:05:47.304Z,72.32
2023-02-08T14:09:00.701Z,72.57
2023-02-08T14:12:16.264Z,72.45
2023-02-08T14:15:17.883Z,72.50
2023-02-08T14:18:26.432Z,72.98
2023-02-08T14:21:40.965Z,73.21
2023-02-08T14:25:07.145Z,73.35
2023-02-08T14:28:24.127Z,73.40
2023-02-08T14:31:45.220Z,73.48
2023-02-08T14:34:47.074Z,73.55
2023-02-08T14:37:50.703Z,73.53
2023-02-08T14:40:55.909Z,73.57
2023-02-08T14:43:57.546Z,73.52
2023-02-08T14:46:59.160Z,73.54
2023-02-08T14:50:15.832Z,73.64
2023-02-08T14:53:34.513Z,73.61
2023-02-08T14:56:47.015Z,73.46
2023-02-08T14:59:49.201Z,73.63
2023-02-08T15:02:51.276Z,73.73
2023-02-08T15:06:37.720Z,73.70
2023-02-08T15:09:41.184Z,73.75
2023-02-08T15:12:53.400Z,73.68
2023-02-08T15:15:56.561Z,73.65
2023-02-08T15:18:58.321Z,73.68
2023-02-08T15:22:32.111Z,73.71
2023-02-08T15:25:36.374Z,73.95
2023-02-08T15:28:44.457Z,74.06
2023-02-08T15:31:46.602Z,74.01
2023-02-08T15:34:53.809Z,74.10
2023-02-08T15:37:55.902Z,74.10
2023-02-08T15:41:05.194Z,73.62
2023-02-08T15:44:26.262Z,73.73
2023-02-08T15:47:35.249Z,73.71
2023-02-08T15:50:37.236Z,74.03
2023-02-08T15:53:41.885Z,73.81
2023-02-08T15:56:55.478Z,74.29
2023-02-08T15:59:57.469Z,74.22
2023-02-08T16:03:02.110Z,74.17
2023-02-08T16:06:06.002Z,74.56
2023-02-08T16:09:07.708Z,74.46
2023-02-08T16:12:20.124Z,74.96
2023-02-08T16:15:40.360Z,74.74
2023-02-08T16:18:47.164Z,74.76
2023-02-08T16:21:48.901Z,74.55
2023-02-08T16:24:50.428Z,74.52
2023-02-08T16:27:52.120Z,74.80
2023-02-08T16:30:55.941Z,74.78
2023-02-08T16:34:15.958Z,74.79
2023-02-08T16:37:28.754Z,74.86
2023-02-08T16:40:42.140Z,75.23
2023-02-08T16:43:44.172Z,75.28
2023-02-08T16:46:45.883Z,75.39
2023-02-08T16:49:50.113Z,75.34
2023-02-08T16:52:59.680Z,75.40
2023-02-08T16:56:01.342Z,75.56
2023-02-08T16:59:03.257Z,75.40
2023-02-08T17:02:11.077Z,75.36
2023-02-08T17:05:12.817Z,75.48
2023-02-08T17:08:20.056Z,75.75
2023-02-08T17:11:21.734Z,75.61
2023-02-08T17:14:23.421Z,75.72
2023-02-08T17:17:25.112Z,75.90
2023-02-08T17:20:29.945Z,75.90
2023-02-08T17:23:31.823Z,75.62
2023-02-08T17:26:41.724Z,75.67
2023-02-08T17:29:43.304Z,75.69
2023-02-08T17:32:44.809Z,76.02
2023-02-08T17:35:48.584Z,75.33
2023-02-08T17:38:50.115Z,75.04
2023-02-08T17:41:51.735Z,75.23
2023-02-08T17:44:53.358Z,75.03
2023-02-08T17:47:56.257Z,75.37
2023-02-08T17:50:57.849Z,75.26
2023-02-08T17:53:59.620Z,75.45
2023-02-08T17:57:01.322Z,75.17
2023-02-08T18:00:06.233Z,74.91
2023-02-08T18:03:08.199Z,75.37
2023-02-08T18:06:10.792Z,75.07
2023-02-08T18:09:12.541Z,75.19
2023-02-08T18:12:14.267Z,75.03
2023-02-08T18:15:18.608Z,75.21
2023-02-08T18:18:20.202Z,75.78
2023-02-08T18:21:23.109Z,75.55
2023-02-08T18:24:24.762Z,75.25
2023-02-08T18:27:26.410Z,75.09
2023-02-08T18:30:28.167Z,75.26
2023-02-08T18:33:29.923Z,75.46
2023-02-08T18:36:31.554Z,75.42
2023-02-08T18:39:33.265Z,75.53
2023-02-08T18:42:36.259Z,75.42
2023-02-08T18:45:38.104Z,75.44
2023-02-08T18:48:40.385Z,75.46
2023-02-08T18:51:43.747Z,75.57
2023-02-08T18:54:45.453Z,75.66
2023-02-08T18:57:47.832Z,75.75
2023-02-08T19:00:50.193Z,76.20
2023-02-08T19:03:52.188Z,76.05
2023-02-08T19:06:53.766Z,76.74
2023-02-08T19:09:55.622Z,76.71
2023-02-08T19:12:57.149Z,75.91
2023-02-08T19:15:58.911Z,75.40
2023-02-08T19:19:01.400Z,75.33
2023-02-08T19:22:02.969Z,75.22
2023-02-08T19:25:04.847Z,75.40
2023-02-08T19:28:06.745Z,75.59
2023-02-08T19:31:11.319Z,75.65
2023-02-08T19:34:13.407Z,75.56
2023-02-08T19:37:15.281Z,75.87
2023-02-08T19:40:17.469Z,75.62
2023-02-08T19:43:18.976Z,75.98
2023-02-08T19:46:23.205Z,75.92
2023-02-08T19:49:24.874Z,76.12
2023-02-08T19:52:26.501Z,76.21
2023-02-08T19:55:28.092Z,76.30
2023-02-08T19:58:31.060Z,76.44
2023-02-08T20:01:34.211Z,76.53
2023-02-08T20:04:35.836Z,76.49
2023-02-08T20:07:37.394Z,75.95
2023-02-08T20:10:43.879Z,75.62
2023-02-08T20:13:45.903Z,75.52
2023-02-08T20:16:47.607Z,75.63
2023-02-08T20:19:49.241Z,75.91
2023-02-08T20:22:51.126Z,75.88
2023-02-08T20:26:02.325Z,76.12
2023-02-08T20:29:04.302Z,76.07
2023-02-08T20:32:06.245Z,76.06
2023-02-08T20:35:08.040Z,76.04
2023-02-08T20:38:09.637Z,76.15
2023-02-08T20:41:13.727Z,76.23
2023-02-08T20:44:17.749Z,76.45
2023-02-08T20:47:19.720Z,76.48
2023-02-08T20:50:21.283Z,76.32
2023-02-08T20:53:22.929Z,76.63
2023-02-08T20:56:29.597Z,76.68
2023-02-08T20:59:31.532Z,76.31
2023-02-08T21:02:33.097Z,76.82
2023-02-08T21:05:34.796Z,77.23
2023-02-08T21:08:36.415Z,77.05
2023-02-08T21:11:38.517Z,76.62
2023-02-08T21:14:40.170Z,76.50
2023-02-08T21:17:42.103Z,76.57
2023-02-08T21:20:44.059Z,76.32
2023-02-08T21:23:46.584Z,76.31
2023-02-08T21:26:48.233Z,76.25
2023-02-08T21:29:51.327Z,76.29
2023-02-08T21:32:52.980Z,76.70
2023-02-08T21:35:54.859Z,77.38
2023-02-08T21:38:59.349Z,77.49
2023-02-08T21:42:00.918Z,77.43
2023-02-08T21:45:02.707Z,77.38
2023-02-08T21:48:04.775Z,77.01
2023-02-08T21:51:06.475Z,76.74
2023-02-08T21:54:12.655Z,76.68
2023-02-08T21:57:23.712Z,76.80
2023-02-08T22:00:25.324Z,76.99
2023-02-08T22:03:27.007Z,77.29
2023-02-08T22:06:28.598Z,77.06
2023-02-08T22:09:30.452Z,76.65
2023-02-08T22:12:31.980Z,76.57
2023-02-08T22:15:33.509Z,76.84
2023-02-08T22:18:35.098Z,77.35
2023-02-08T22:21:36.636Z,77.22
2023-02-08T22:24:38.358Z,77.12
2023-02-08T22:27:39.880Z,77.24
2023-02-08T22:30:41.452Z,77.32
2023-02-08T22:33:43.131Z,77.53
2023-02-08T22:36:44.696Z,77.46
2023-02-08T22:39:46.305Z,77.38
2023-02-08T22:42:47.947Z,77.33
2023-02-08T22:45:59.686Z,77.20
2023-02-08T22:49:01.308Z,77.43
2023-02-08T22:52:04.153Z,77.35
2023-02-08T22:55:06.245Z,77.63
2023-02-08T22:58:07.838Z,77.72
2023-02-08T23:01:15.192Z,77.52
2023-02-08T23:04:16.838Z,77.61
2023-02-08T23:07:18.594Z,77.58
2023-02-08T23:10:20.225Z,77.62
2023-02-08T23:13:21.777Z,77.42
2023-02-08T23:16:23.539Z,77.55
2023-02-08T23:19:25.157Z,77.35
2023-02-08T23:22:26.822Z,77.20
2023-02-08T23:25:28.523Z,77.09
2023-02-08T23:28:30.136Z,76.76
2023-02-08T23:31:32.060Z,76.92
2023-02-08T23:34:34.764Z,77.28
2023-02-08T23:37:36.609Z,77.39
2023-02-08T23:40:40.316Z,77.56
2023-02-08T23:43:42.717Z,77.84
2023-02-08T23:46:44.314Z,78.00
2023-02-08T23:49:46.037Z,78.12
2023-02-08T23:52:47.643Z,78.01
2023-02-08T23:55:49.172Z,77.89
2023-02-08T23:58:53.322Z,77.90
